Time;durP1;ratioP1;P1;durP2;ratioP2;P2;SDS_P1;SDS_P2;PMS_P1;PMS_P2;Temp;Humidity;BMP_temperature;BMP_pressure;BME280_temperature;BME280_humidity;BME280_pressure;Samples;Min_cycle;Max_cycle;Signal;HPM_P1;HPM_P2
2021/04/04 00:00:28;;;;;;;34.45;10.55;;;6.10;99.90;;;;;;5013111;28;20149;-62
2021/04/04 00:02:54;;;;;;;34.00;8.90;;;6.10;99.90;;;;;;5015598;28;20037;-61
2021/04/04 00:05:21;;;;;;;31.58;9.85;;;6.10;99.90;;;;;;5014760;28;20056;-62
2021/04/04 00:07:47;;;;;;;34.17;11.63;;;6.10;99.90;;;;;;5017423;28;20029;-62
2021/04/04 00:10:15;;;;;;;32.28;9.38;;;6.10;99.90;;;;;;5017603;28;20034;-61
2021/04/04 00:12:41;;;;;;;30.08;10.30;;;6.20;99.90;;;;;;5016435;28;20083;-62
2021/04/04 00:15:11;;;;;;;20.83;7.47;;;6.20;99.90;;;;;;5016788;28;20370;-62
2021/04/04 00:17:37;;;;;;;29.67;9.68;;;6.20;99.90;;;;;;5018597;28;20041;-62
2021/04/04 00:20:11;;;;;;;26.92;9.20;;;6.20;99.90;;;;;;5016544;28;20642;-62
2021/04/04 00:22:37;;;;;;;29.13;10.73;;;6.20;99.90;;;;;;5017104;28;20057;-62
2021/04/04 00:25:08;;;;;;;32.47;9.70;;;6.20;99.90;;;;;;5017702;28;20880;-61
2021/04/04 00:27:34;;;;;;;29.67;10.02;;;6.20;99.90;;;;;;5017842;28;20053;-62
2021/04/04 00:30:19;;;;;;;32.63;9.63;;;6.20;99.90;;;;;;5013232;28;20164;-62
2021/04/04 00:32:46;;;;;;;33.72;9.77;;;6.20;99.90;;;;;;5017885;28;20029;-61
2021/04/04 00:35:17;;;;;;;27.73;10.52;;;6.20;99.90;;;;;;5018005;28;20061;-61
2021/04/04 00:37:45;;;;;;;29.70;9.32;;;6.30;99.90;;;;;;5018888;28;20476;-62
2021/04/04 00:40:17;;;;;;;33.92;9.80;;;6.30;99.90;;;;;;5017013;28;20068;-61
2021/04/04 00:42:43;;;;;;;27.83;9.13;;;6.30;99.90;;;;;;5014810;28;20069;-61
2021/04/04 00:45:16;;;;;;;23.23;7.90;;;6.30;99.90;;;;;;5018318;28;20144;-61
2021/04/04 00:47:42;;;;;;;30.67;8.40;;;6.30;99.90;;;;;;5016769;28;20044;-61
2021/04/04 00:50:09;;;;;;;27.02;8.73;;;6.30;99.90;;;;;;5016421;28;20807;-61
2021/04/04 00:52:35;;;;;;;26.33;7.95;;;6.30;99.90;;;;;;5016237;28;20029;-61
2021/04/04 00:55:02;;;;;;;28.35;8.32;;;6.30;99.90;;;;;;5017539;28;20102;-61
2021/04/04 00:57:28;;;;;;;25.33;8.20;;;6.30;99.90;;;;;;5017124;28;20037;-61
2021/04/04 00:59:54;;;;;;;28.38;10.20;;;6.30;99.90;;;;;;5018816;28;20040;-61
2021/04/04 01:02:21;;;;;;;21.10;7.53;;;6.30;99.90;;;;;;5012862;28;20060;-61
2021/04/04 01:04:49;;;;;;;25.67;7.32;;;6.30;99.90;;;;;;5016046;28;20037;-61
2021/04/04 01:07:15;;;;;;;19.67;6.72;;;6.30;99.90;;;;;;5017631;28;20029;-62
2021/04/04 01:09:41;;;;;;;19.67;6.97;;;6.30;99.90;;;;;;5016833;28;20037;-61
2021/04/04 01:12:19;;;;;;;24.25;7.65;;;6.30;99.90;;;;;;5016358;28;20079;-61
2021/04/04 01:14:52;;;;;;;26.45;7.55;;;6.40;99.90;;;;;;5013953;28;20037;-62
2021/04/04 01:17:21;;;;;;;20.85;6.45;;;6.40;99.90;;;;;;5018022;28;20033;-62
2021/04/04 01:20:07;;;;;;;20.02;6.40;;;6.40;99.90;;;;;;5014508;28;20203;-61
2021/04/04 01:22:55;;;;;;;24.02;6.22;;;6.40;99.90;;;;;;5016768;28;20036;-61
2021/04/04 01:25:37;;;;;;;22.60;7.10;;;6.30;99.90;;;;;;5014841;28;20378;-61
2021/04/04 01:28:08;;;;;;;15.90;5.05;;;6.30;99.90;;;;;;5018248;28;20040;-61
2021/04/04 01:30:39;;;;;;;16.75;5.53;;;6.30;99.90;;;;;;5018940;28;20037;-62
2021/04/04 01:33:09;;;;;;;16.67;4.75;;;6.30;99.90;;;;;;5017151;28;20540;-61
2021/04/04 01:35:37;;;;;;;21.60;5.38;;;6.30;99.90;;;;;;5018948;28;20033;-61
2021/04/04 01:38:10;;;;;;;24.48;6.63;;;6.40;99.90;;;;;;5017924;28;20029;-62
2021/04/04 01:40:37;;;;;;;20.10;4.88;;;6.40;99.90;;;;;;5016077;28;20167;-62
2021/04/04 01:43:06;;;;;;;17.80;5.07;;;6.40;99.90;;;;;;5017819;28;20029;-61
2021/04/04 01:45:32;;;;;;;14.15;4.15;;;6.40;99.90;;;;;;5017724;28;20069;-61
2021/04/04 01:48:00;;;;;;;16.58;4.60;;;6.40;99.90;;;;;;5018226;28;20061;-61
2021/04/04 01:50:28;;;;;;;20.98;4.03;;;6.40;99.90;;;;;;5017336;28;20452;-61
2021/04/04 01:52:55;;;;;;;18.27;4.18;;;6.40;99.90;;;;;;5018541;28;20046;-61
2021/04/04 01:55:23;;;;;;;18.17;4.43;;;6.40;99.90;;;;;;5016519;28;20040;-61
2021/04/04 01:57:51;;;;;;;17.10;4.30;;;6.40;99.90;;;;;;5017069;28;20492;-61
2021/04/04 02:00:21;;;;;;;25.73;4.93;;;6.40;99.90;;;;;;5018432;28;20579;-61
2021/04/04 02:02:48;;;;;;;;;;;6.40;99.90;;;;;;5017706;28;20477;-61
2021/04/04 02:05:14;;;;;;;21.92;4.75;;;6.50;99.90;;;;;;5018355;28;20314;-62
2021/04/04 02:07:47;;;;;;;20.58;5.30;;;6.50;99.90;;;;;;5011959;28;20498;-61
2021/04/04 02:10:18;;;;;;;16.58;3.90;;;6.50;99.90;;;;;;5009620;28;20481;-61
2021/04/04 02:12:45;;;;;;;14.10;4.38;;;6.50;99.90;;;;;;5017010;28;20029;-62
2021/04/04 02:15:13;;;;;;;27.75;5.32;;;6.50;99.90;;;;;;5016790;28;20457;-62
2021/04/04 02:17:40;;;;;;;17.63;4.95;;;6.50;99.90;;;;;;5019158;28;20030;-62
2021/04/04 02:20:11;;;;;;;14.93;3.85;;;6.50;99.90;;;;;;5016773;28;20165;-62
2021/04/04 02:22:38;;;;;;;20.55;4.32;;;6.40;99.90;;;;;;5015649;28;20064;-62
2021/04/04 02:25:07;;;;;;;24.17;4.70;;;6.50;99.90;;;;;;5017090;28;20176;-62
2021/04/04 02:27:32;;;;;;;22.27;4.80;;;6.50;99.90;;;;;;5017714;28;20552;-61
2021/04/04 02:29:59;;;;;;;22.58;4.15;;;6.50;99.90;;;;;;5016284;28;20041;-62
2021/04/04 02:32:27;;;;;;;19.25;3.95;;;6.40;99.90;;;;;;5016411;28;20033;-62
2021/04/04 02:34:58;;;;;;;24.63;5.78;;;6.40;99.90;;;;;;5017137;28;20509;-61
2021/04/04 02:37:24;;;;;;;23.05;4.03;;;6.40;99.90;;;;;;5017421;28;20083;-61
2021/04/04 02:39:55;;;;;;;16.55;4.10;;;6.50;99.90;;;;;;5017524;28;20084;-62
2021/04/04 02:42:24;;;;;;;19.35;4.47;;;6.50;99.90;;;;;;5015987;28;20037;-62
2021/04/04 02:44:56;;;;;;;16.55;3.78;;;6.50;99.90;;;;;;5015979;28;20553;-62
2021/04/04 02:47:44;;;;;;;20.23;4.60;;;6.50;99.90;;;;;;5016911;28;20381;-62
2021/04/04 02:50:11;;;;;;;18.67;4.60;;;6.50;99.90;;;;;;5017531;28;20485;-61
2021/04/04 02:52:40;;;;;;;25.50;6.00;;;6.50;99.90;;;;;;5017425;28;20052;-61
2021/04/04 02:55:10;;;;;;;21.00;4.25;;;6.50;99.90;;;;;;5018459;28;20033;-61
2021/04/04 02:57:36;;;;;;;20.20;4.13;;;6.50;99.90;;;;;;5028658;28;20037;-61
2021/04/04 03:00:06;;;;;;;22.63;3.95;;;6.40;99.90;;;;;;5018113;28;20061;-61
2021/04/04 03:02:34;;;;;;;18.00;4.47;;;6.40;99.90;;;;;;5017768;28;20064;-62
2021/04/04 03:05:02;;;;;;;21.70;4.40;;;6.40;99.90;;;;;;5009417;28;20400;-62
2021/04/04 03:07:29;;;;;;;20.60;4.00;;;6.40;99.90;;;;;;5016979;28;20021;-61
2021/04/04 03:09:56;;;;;;;24.50;5.28;;;6.50;99.90;;;;;;5018187;28;20496;-61
2021/04/04 03:12:26;;;;;;;18.98;3.38;;;6.40;99.90;;;;;;5017457;28;20124;-62
2021/04/04 03:14:56;;;;;;;22.80;4.55;;;6.40;99.90;;;;;;5014328;28;20106;-61
2021/04/04 03:17:24;;;;;;;20.48;3.90;;;6.50;99.90;;;;;;5015078;28;20033;-61
2021/04/04 03:19:51;;;;;;;20.20;4.03;;;6.50;99.90;;;;;;5014866;28;20049;-62
2021/04/04 03:22:18;;;;;;;23.35;4.20;;;6.50;99.90;;;;;;5015267;28;20057;-61
2021/04/04 03:24:47;;;;;;;14.38;2.88;;;6.50;99.90;;;;;;5019563;28;20033;-62
2021/04/04 03:27:15;;;;;;;18.23;2.95;;;6.50;99.90;;;;;;5016809;28;20029;-61
2021/04/04 03:29:41;;;;;;;19.23;5.03;;;6.50;99.90;;;;;;5020143;28;20095;-62
2021/04/04 03:32:08;;;;;;;20.63;4.63;;;6.50;99.90;;;;;;5017037;28;20493;-61
2021/04/04 03:34:35;;;;;;;24.42;4.93;;;6.60;99.90;;;;;;5016835;28;20021;-61
2021/04/04 03:37:01;;;;;;;29.00;5.15;;;6.60;99.90;;;;;;5014315;28;20025;-61
2021/04/04 03:39:28;;;;;;;21.95;4.80;;;6.60;99.90;;;;;;5018352;28;20040;-61
2021/04/04 03:41:58;;;;;;;21.02;4.93;;;6.60;99.90;;;;;;5016109;28;20042;-62
2021/04/04 03:44:30;;;;;;;23.95;4.75;;;6.60;99.90;;;;;;5017611;28;20552;-62
2021/04/04 03:46:58;;;;;;;43.83;5.90;;;6.60;99.90;;;;;;5016898;28;20038;-61
2021/04/04 03:49:25;;;;;;;21.38;3.53;;;6.50;99.90;;;;;;5017966;28;20732;-61
2021/04/04 03:51:56;;;;;;;20.98;3.90;;;6.40;99.90;;;;;;5016687;28;20040;-61
2021/04/04 03:54:24;;;;;;;19.50;4.38;;;6.40;99.90;;;;;;5017498;28;22374;-61
2021/04/04 03:56:52;;;;;;;15.55;4.05;;;6.40;99.90;;;;;;5015646;28;20083;-62
2021/04/04 03:59:21;;;;;;;25.73;4.00;;;6.40;99.90;;;;;;5014945;28;20034;-61
2021/04/04 04:01:49;;;;;;;26.15;4.18;;;6.40;99.90;;;;;;5017708;28;20041;-61
2021/04/04 04:04:16;;;;;;;21.88;4.28;;;6.40;99.90;;;;;;5015465;28;20039;-62
2021/04/04 04:06:45;;;;;;;18.63;4.32;;;6.50;99.90;;;;;;5020115;28;20033;-61
2021/04/04 04:09:17;;;;;;;20.70;5.03;;;6.40;99.90;;;;;;5013672;28;20044;-61
2021/04/04 04:11:46;;;;;;;25.20;4.53;;;6.50;99.90;;;;;;5013618;28;20041;-62
2021/04/04 04:14:16;;;;;;;21.10;4.00;;;6.50;99.90;;;;;;5015336;28;22406;-61
2021/04/04 04:16:42;;;;;;;21.73;4.32;;;6.50;99.90;;;;;;5015612;28;20059;-61
2021/04/04 04:19:10;;;;;;;18.92;3.97;;;6.50;99.90;;;;;;5016686;28;20061;-62
2021/04/04 04:21:38;;;;;;;23.48;3.75;;;6.50;99.90;;;;;;5017831;28;20037;-61
2021/04/04 04:24:06;;;;;;;13.73;3.78;;;6.40;99.90;;;;;;5017197;28;20029;-61
2021/04/04 04:26:34;;;;;;;25.95;4.50;;;6.40;99.90;;;;;;5017128;28;20049;-62
2021/04/04 04:29:01;;;;;;;22.63;5.03;;;6.50;99.90;;;;;;5017257;28;20103;-61
2021/04/04 04:31:32;;;;;;;17.95;3.72;;;6.40;99.90;;;;;;5017206;28;20038;-61
2021/04/04 04:34:01;;;;;;;22.88;4.00;;;6.40;99.90;;;;;;5018951;28;20029;-61
2021/04/04 04:36:30;;;;;;;19.50;3.72;;;6.40;99.90;;;;;;5015554;28;20574;-61
2021/04/04 04:38:57;;;;;;;19.67;3.35;;;6.40;99.90;;;;;;5016804;28;20113;-61
2021/04/04 04:41:24;;;;;;;24.13;3.58;;;6.40;99.90;;;;;;5016809;28;20789;-62
2021/04/04 04:43:59;;;;;;;25.00;5.45;;;6.40;99.90;;;;;;5016122;28;20112;-61
2021/04/04 04:46:26;;;;;;;20.40;4.03;;;6.40;99.90;;;;;;5017324;28;20037;-62
2021/04/04 04:48:52;;;;;;;31.50;4.60;;;6.40;99.90;;;;;;5015386;28;20034;-61
2021/04/04 04:51:20;;;;;;;26.30;5.22;;;6.40;99.90;;;;;;5015789;28;20091;-62
2021/04/04 04:53:47;;;;;;;23.50;5.03;;;6.40;99.90;;;;;;5016364;28;20033;-61
2021/04/04 04:56:14;;;;;;;34.60;5.00;;;6.40;99.90;;;;;;5017978;28;20124;-61
2021/04/04 04:58:41;;;;;;;21.45;4.38;;;6.40;99.90;;;;;;5013800;28;20866;-61
2021/04/04 05:01:10;;;;;;;25.63;4.45;;;6.50;99.90;;;;;;5015529;28;20041;-61
2021/04/04 05:03:36;;;;;;;20.88;5.07;;;6.50;99.90;;;;;;5016899;28;20090;-62
2021/04/04 05:06:12;;;;;;;22.58;4.00;;;6.50;99.90;;;;;;5022668;28;20944;-62
2021/04/04 05:08:41;;;;;;;24.25;4.90;;;6.50;99.90;;;;;;5018916;28;20044;-62
2021/04/04 05:11:09;;;;;;;19.85;4.55;;;6.50;99.90;;;;;;5020459;28;20116;-61
2021/04/04 05:13:38;;;;;;;34.53;5.45;;;6.50;99.90;;;;;;5019215;28;20697;-61
2021/04/04 05:16:12;;;;;;;27.75;5.13;;;6.50;99.90;;;;;;5015737;28;20041;-61
2021/04/04 05:18:49;;;;;;;23.02;4.18;;;6.60;99.90;;;;;;5019312;28;20045;-61
2021/04/04 05:21:29;;;;;;;24.48;4.55;;;6.60;99.90;;;;;;5018290;28;20029;-61
2021/04/04 05:23:56;;;;;;;;;;;6.60;99.90;;;;;;5020419;28;20044;-62
2021/04/04 05:26:27;;;;;;;29.50;5.60;;;6.60;99.90;;;;;;5019823;28;19920;-62
2021/04/04 05:28:53;;;;;;;24.55;4.53;;;6.60;99.90;;;;;;5016307;28;20037;-61
2021/04/04 05:31:21;;;;;;;18.08;4.07;;;6.60;99.90;;;;;;5020299;28;20037;-62
2021/04/04 05:33:47;;;;;;;24.00;4.30;;;6.60;99.90;;;;;;5017108;28;20034;-61
2021/04/04 05:36:13;;;;;;;20.25;3.55;;;6.60;99.90;;;;;;5019495;28;20036;-61
2021/04/04 05:38:39;;;;;;;18.88;4.30;;;6.60;99.90;;;;;;5021120;28;20366;-62
2021/04/04 05:41:06;;;;;;;17.95;3.63;;;6.60;99.90;;;;;;5020895;28;20049;-61
2021/04/04 05:43:40;;;;;;;16.52;3.97;;;6.60;99.90;;;;;;5021104;28;20032;-61
2021/04/04 05:46:32;;;;;;;21.27;3.58;;;6.60;99.90;;;;;;5012567;28;20111;-62
2021/04/04 05:49:18;;;;;;;21.15;3.53;;;6.50;99.90;;;;;;5016794;28;20556;-61
2021/04/04 05:52:22;;;;;;;15.77;4.00;;;6.50;99.90;;;;;;5017913;28;20048;-61
2021/04/04 05:55:09;;;;;;;15.13;3.38;;;6.50;99.90;;;;;;4990271;28;20112;-61
2021/04/04 05:57:46;;;;;;;16.05;3.17;;;6.50;99.90;;;;;;5010018;28;20106;-61
2021/04/04 06:00:16;;;;;;;19.13;4.50;;;6.60;99.90;;;;;;5016921;28;20041;-62
2021/04/04 06:03:04;;;;;;;14.85;3.35;;;6.60;99.90;;;;;;5015976;28;20042;-61
2021/04/04 06:05:58;;;;;;;12.73;2.72;;;6.60;99.90;;;;;;5014367;28;20040;-62
2021/04/04 06:08:34;;;;;;;11.05;2.80;;;6.60;99.90;;;;;;5016130;28;20031;-61
2021/04/04 06:11:26;;;;;;;15.63;3.05;;;6.60;99.90;;;;;;5013738;28;20048;-62
2021/04/04 06:14:26;;;;;;;17.60;3.63;;;6.60;99.90;;;;;;5016179;28;20034;-62
2021/04/04 06:17:09;;;;;;;11.75;3.65;;;6.60;99.90;;;;;;5015028;28;20026;-62
2021/04/04 06:19:44;;;;;;;16.17;2.85;;;6.60;99.90;;;;;;5018027;28;20063;-62
2021/04/04 06:22:18;;;;;;;15.00;3.20;;;6.60;99.90;;;;;;5017595;28;20433;-62
2021/04/04 06:24:46;;;;;;;17.67;3.08;;;6.60;99.90;;;;;;5017689;28;20072;-61
2021/04/04 06:27:24;;;;;;;10.52;2.15;;;6.70;99.90;;;;;;5014740;28;20030;-62
2021/04/04 06:30:02;;;;;;;19.27;2.60;;;6.80;99.90;;;;;;5016312;28;20510;-61
2021/04/04 06:33:02;;;;;;;7.63;2.08;;;6.70;99.90;;;;;;5015541;28;20033;-61
2021/04/04 06:35:40;;;;;;;13.20;2.45;;;6.80;99.90;;;;;;5018229;28;20122;-62
2021/04/04 06:38:35;;;;;;;12.82;2.63;;;6.80;99.90;;;;;;5014223;28;20104;-61
2021/04/04 06:41:34;;;;;;;8.63;1.75;;;6.80;99.90;;;;;;5012598;28;20444;-61
2021/04/04 06:44:27;;;;;;;10.25;1.70;;;6.80;99.90;;;;;;5010151;28;20034;-61
2021/04/04 06:47:09;;;;;;;9.05;1.65;;;6.90;99.90;;;;;;5017487;28;20076;-62
2021/04/04 06:50:06;;;;;;;8.07;1.77;;;6.90;99.90;;;;;;5015271;28;20045;-62
2021/04/04 06:53:11;;;;;;;8.82;1.92;;;7.00;99.90;;;;;;5015743;28;20044;-62
2021/04/04 06:56:07;;;;;;;5.28;1.98;;;7.00;99.90;;;;;;5016331;28;20022;-61
2021/04/04 06:58:48;;;;;;;9.55;1.98;;;7.00;99.90;;;;;;5018988;28;20037;-62
2021/04/04 07:01:47;;;;;;;9.95;3.15;;;7.00;99.90;;;;;;5011635;28;20030;-61
2021/04/04 07:04:30;;;;;;;4.18;1.00;;;7.00;99.90;;;;;;5014018;28;20032;-61
2021/04/04 07:07:14;;;;;;;5.78;1.40;;;7.00;99.90;;;;;;5016027;28;20103;-61
2021/04/04 07:09:39;;;;;;;3.88;1.13;;;7.00;99.90;;;;;;5009645;28;20167;-61
2021/04/04 07:12:38;;;;;;;5.13;1.20;;;7.10;99.90;;;;;;5015798;28;20955;-61
2021/04/04 07:15:41;;;;;;;8.82;1.20;;;7.20;99.90;;;;;;5011631;28;20033;-61
2021/04/04 07:18:46;;;;;;;5.45;1.45;;;7.30;99.90;;;;;;5014079;28;20033;-61
2021/04/04 07:22:09;;;;;;;12.35;1.90;;;7.30;99.90;;;;;;5012295;28;20558;-62
2021/04/04 07:24:51;;;;;;;4.20;0.80;;;7.40;99.90;;;;;;5017893;28;20159;-61
2021/04/04 07:27:46;;;;;;;4.28;1.38;;;7.30;99.90;;;;;;5004942;28;20411;-62
2021/04/04 07:30:39;;;;;;;3.78;1.08;;;7.30;99.90;;;;;;5013381;28;20052;-61
2021/04/04 07:33:36;;;;;;;7.90;1.38;;;7.40;99.90;;;;;;5009667;28;20371;-62
2021/04/04 07:36:02;;;;;;;13.10;1.75;;;7.50;99.90;;;;;;5016229;28;20026;-61
2021/04/04 07:39:02;;;;;;;12.07;2.13;;;7.40;99.90;;;;;;5011401;28;20037;-61
2021/04/04 07:42:12;;;;;;;8.90;1.63;;;7.50;99.90;;;;;;5014217;28;20037;-62
2021/04/04 07:44:49;;;;;;;8.57;1.70;;;7.60;99.90;;;;;;5010758;28;20146;-62
2021/04/04 07:47:37;;;;;;;16.98;2.53;;;7.50;99.90;;;;;;5003084;28;20034;-61
2021/04/04 07:50:09;;;;;;;10.55;1.60;;;7.50;99.90;;;;;;5013070;28;20064;-62
2021/04/04 07:52:40;;;;;;;7.65;1.38;;;7.50;99.90;;;;;;5012749;28;20543;-62
2021/04/04 07:55:12;;;;;;;7.28;1.35;;;7.40;99.90;;;;;;5012012;28;20037;-62
2021/04/04 07:58:12;;;;;;;6.93;1.45;;;7.40;99.90;;;;;;5009727;28;20022;-61
2021/04/04 08:00:45;;;;;;;5.40;1.30;;;7.40;99.90;;;;;;5013808;28;20049;-61
2021/04/04 08:03:16;;;;;;;7.70;1.60;;;7.30;99.90;;;;;;5014191;28;20096;-62
2021/04/04 08:05:45;;;;;;;4.70;1.35;;;7.50;99.90;;;;;;5012652;28;20150;-61
2021/04/04 08:08:20;;;;;;;8.05;1.23;;;7.60;99.90;;;;;;5008408;28;20029;-61
2021/04/04 08:11:05;;;;;;;10.60;1.50;;;7.70;99.90;;;;;;5010591;28;20429;-62
2021/04/04 08:13:40;;;;;;;7.15;1.42;;;7.80;99.90;;;;;;5010876;28;20029;-62
2021/04/04 08:16:14;;;;;;;4.47;1.08;;;7.80;99.90;;;;;;5007533;28;20069;-61
2021/04/04 08:18:40;;;;;;;3.65;0.85;;;7.80;99.90;;;;;;5014135;28;20483;-61
2021/04/04 08:21:18;;;;;;;5.10;1.17;;;7.70;99.90;;;;;;5005492;28;20477;-62
2021/04/04 08:24:05;;;;;;;10.77;1.73;;;7.70;99.90;;;;;;5009676;28;20548;-61
2021/04/04 08:27:06;;;;;;;11.48;1.88;;;7.70;99.90;;;;;;5009487;28;20812;-61
2021/04/04 08:29:40;;;;;;;6.40;1.67;;;7.80;99.90;;;;;;4999282;28;20630;-61
2021/04/04 08:32:10;;;;;;;7.32;1.85;;;7.80;99.90;;;;;;5011657;28;20033;-62
2021/04/04 08:34:56;;;;;;;6.38;1.42;;;7.80;99.90;;;;;;5009468;28;20127;-61
2021/04/04 08:37:45;;;;;;;5.93;1.10;;;7.60;99.90;;;;;;5016261;28;20033;-62
2021/04/04 08:40:15;;;;;;;9.30;1.40;;;7.60;99.90;;;;;;5015755;28;20040;-62
2021/04/04 08:42:48;;;;;;;10.80;2.28;;;7.50;99.90;;;;;;5014527;28;20037;-61
2021/04/04 08:45:16;;;;;;;8.63;1.45;;;7.60;99.90;;;;;;5010053;28;20026;-61
2021/04/04 08:47:48;;;;;;;9.73;1.67;;;7.80;99.90;;;;;;5011747;28;20037;-61
2021/04/04 08:50:19;;;;;;;8.50;1.50;;;7.80;99.90;;;;;;5012874;28;20600;-62
2021/04/04 08:53:10;;;;;;;11.57;1.48;;;7.80;99.90;;;;;;5014992;28;20644;-62
2021/04/04 08:55:37;;;;;;;8.45;2.13;;;7.70;99.90;;;;;;5013604;28;20116;-62
2021/04/04 08:58:06;;;;;;;12.68;1.98;;;7.70;99.90;;;;;;5012985;28;20478;-62
2021/04/04 09:00:35;;;;;;;10.18;1.73;;;7.70;99.90;;;;;;5015854;28;20037;-62
2021/04/04 09:03:10;;;;;;;14.60;2.83;;;7.80;99.90;;;;;;5016573;28;20132;-62
2021/04/04 09:05:37;;;;;;;5.90;1.55;;;7.90;99.90;;;;;;5014582;28;20045;-62
2021/04/04 09:08:05;;;;;;;11.35;2.40;;;8.00;99.90;;;;;;5014536;28;20045;-62
2021/04/04 09:10:38;;;;;;;8.35;1.95;;;8.00;99.90;;;;;;5017211;28;20145;-61
2021/04/04 09:13:14;;;;;;;8.70;2.00;;;8.20;99.90;;;;;;5008626;28;20634;-62
2021/04/04 09:15:51;;;;;;;7.97;1.25;;;8.20;99.90;;;;;;5018148;28;20375;-62
2021/04/04 09:18:18;;;;;;;4.65;1.15;;;8.20;99.90;;;;;;5011017;28;20034;-62
2021/04/04 09:20:46;;;;;;;7.45;1.25;;;8.10;99.90;;;;;;5032664;28;20049;-62
2021/04/04 09:23:14;;;;;;;6.85;1.17;;;8.20;99.90;;;;;;5017504;28;20033;-62
2021/04/04 09:26:02;;;;;;;11.18;1.52;;;8.20;99.90;;;;;;5012019;28;20040;-62
2021/04/04 09:28:29;;;;;;;10.80;1.88;;;8.30;99.90;;;;;;5010456;28;20056;-62
2021/04/04 09:30:57;;;;;;;2.53;1.00;;;8.30;99.90;;;;;;5018945;28;20037;-61
2021/04/04 09:33:29;;;;;;;6.82;1.40;;;8.40;99.90;;;;;;5018014;28;20065;-62
2021/04/04 09:36:00;;;;;;;9.25;1.98;;;8.20;99.90;;;;;;5012738;28;20030;-62
2021/04/04 09:38:32;;;;;;;12.02;2.60;;;8.20;99.90;;;;;;5015212;28;20037;-62
2021/04/04 09:40:59;;;;;;;15.13;2.90;;;8.20;99.90;;;;;;5015663;28;20047;-62
2021/04/04 09:43:26;;;;;;;12.25;2.00;;;8.20;99.90;;;;;;5013759;28;20098;-62
2021/04/04 09:46:05;;;;;;;7.07;1.60;;;8.40;99.90;;;;;;5012839;28;20108;-62
2021/04/04 09:48:37;;;;;;;10.77;2.33;;;8.50;99.90;;;;;;5016477;28;20028;-62
2021/04/04 09:51:10;;;;;;;8.90;1.58;;;8.60;99.90;;;;;;5015492;28;20674;-62
2021/04/04 09:53:41;;;;;;;10.30;1.95;;;8.60;99.90;;;;;;5015648;28;20448;-62
2021/04/04 09:56:09;;;;;;;15.00;3.80;;;8.50;99.90;;;;;;5012077;28;20032;-62
2021/04/04 09:58:38;;;;;;;10.27;2.10;;;8.50;99.90;;;;;;5013075;28;20029;-62
2021/04/04 10:01:23;;;;;;;10.27;1.67;;;8.40;99.90;;;;;;5015670;28;20128;-62
2021/04/04 10:04:06;;;;;;;13.68;3.38;;;8.40;99.90;;;;;;5016860;28;20041;-62
2021/04/04 10:06:34;;;;;;;13.30;2.28;;;8.50;99.90;;;;;;5008262;28;20116;-61
2021/04/04 10:09:03;;;;;;;16.33;3.00;;;8.60;99.90;;;;;;5011824;28;20026;-61
2021/04/04 10:11:30;;;;;;;9.65;1.80;;;8.70;99.90;;;;;;5015513;28;20095;-62
2021/04/04 10:14:08;;;;;;;11.23;2.22;;;8.90;99.90;;;;;;5000183;28;20042;-62
2021/04/04 10:16:35;;;;;;;14.00;2.35;;;9.20;99.90;;;;;;5007825;28;20587;-62
2021/04/04 10:19:12;;;;;;;14.45;2.10;;;9.20;99.90;;;;;;5010621;28;20053;-62
2021/04/04 10:21:40;;;;;;;10.63;2.35;;;9.10;99.90;;;;;;5011568;28;20228;-62
2021/04/04 10:24:35;;;;;;;13.88;3.25;;;8.90;99.90;;;;;;5007051;28;20476;-62
2021/04/04 10:27:39;;;;;;;15.05;2.38;;;8.70;99.90;;;;;;5009401;28;20033;-62
2021/04/04 10:30:17;;;;;;;13.85;2.53;;;8.60;99.90;;;;;;5022856;28;20033;-62
2021/04/04 10:32:48;;;;;;;14.90;2.53;;;8.50;99.90;;;;;;5024819;28;20460;-61
2021/04/04 10:35:31;;;;;;;11.32;2.30;;;8.40;99.90;;;;;;5021418;28;20307;-62
2021/04/04 10:38:10;;;;;;;11.98;2.40;;;8.40;99.90;;;;;;5017103;28;20037;-62
2021/04/04 10:40:40;;;;;;;15.90;3.08;;;8.40;99.90;;;;;;5013970;28;20049;-62
2021/04/04 10:43:07;;;;;;;11.20;2.97;;;8.30;99.90;;;;;;5018939;28;20033;-62
2021/04/04 10:45:33;;;;;;;9.95;2.28;;;8.20;99.90;;;;;;5016562;28;20096;-62
2021/04/04 10:48:07;;;;;;;15.82;3.47;;;8.20;99.90;;;;;;5016865;28;20037;-62
2021/04/04 10:50:34;;;;;;;15.48;2.95;;;8.20;99.90;;;;;;5017480;28;20026;-62
2021/04/04 10:53:00;;;;;;;19.13;2.65;;;8.20;99.90;;;;;;5012493;28;20029;-62
2021/04/04 10:55:26;;;;;;;15.10;3.35;;;8.20;99.90;;;;;;5012437;28;20591;-62
2021/04/04 10:57:54;;;;;;;23.63;2.78;;;8.10;99.90;;;;;;4997277;28;20393;-62
2021/04/04 11:00:21;;;;;;;15.25;3.33;;;8.10;99.90;;;;;;5008696;28;20038;-62
2021/04/04 11:02:48;;;;;;;23.60;3.53;;;8.10;99.90;;;;;;5015250;28;20029;-62
2021/04/04 11:05:15;;;;;;;13.70;3.53;;;8.00;99.90;;;;;;5014288;28;20032;-62
2021/04/04 11:07:42;;;;;;;27.40;3.72;;;8.00;99.90;;;;;;5017570;28;20060;-62
2021/04/04 11:10:09;;;;;;;18.48;4.53;;;8.10;99.90;;;;;;5011515;28;20392;-62
2021/04/04 11:12:37;;;;;;;28.70;3.85;;;8.20;99.90;;;;;;5016862;28;20431;-62
2021/04/04 11:15:06;;;;;;;18.13;4.13;;;8.20;99.90;;;;;;5009647;28;20084;-62
2021/04/04 11:17:34;;;;;;;21.90;4.90;;;8.20;99.90;;;;;;5007944;28;20038;-63
2021/04/04 11:20:01;;;;;;;21.67;3.92;;;8.20;99.90;;;;;;5004287;28;20050;-64
2021/04/04 11:22:27;;;;;;;20.20;3.92;;;8.30;99.90;;;;;;5015402;28;20041;-63
2021/04/04 11:24:59;;;;;;;16.88;4.18;;;8.20;99.90;;;;;;5014839;28;20073;-62
2021/04/04 11:27:42;;;;;;;19.45;3.53;;;8.30;99.90;;;;;;5016525;28;20316;-62
2021/04/04 11:30:13;;;;;;;20.38;4.20;;;8.30;99.90;;;;;;5011102;28;20507;-62
2021/04/04 11:32:41;;;;;;;12.75;3.35;;;8.40;99.90;;;;;;5010247;28;20053;-63
2021/04/04 11:35:08;;;;;;;17.80;3.30;;;8.40;99.90;;;;;;5006565;28;20041;-62
2021/04/04 11:37:36;;;;;;;15.88;3.38;;;8.40;99.90;;;;;;5013380;28;20381;-62
2021/04/04 11:40:25;;;;;;;15.98;4.30;;;8.40;99.90;;;;;;5007451;28;20418;-63
2021/04/04 11:43:12;;;;;;;21.90;4.20;;;8.50;99.90;;;;;;5013816;28;20026;-62
2021/04/04 11:45:39;;;;;;;18.08;3.95;;;8.40;99.90;;;;;;5010940;28;20482;-62
2021/04/04 11:48:30;;;;;;;26.83;4.53;;;8.40;99.90;;;;;;5005673;28;20032;-62
2021/04/04 11:51:11;;;;;;;25.27;5.30;;;8.30;99.90;;;;;;5011303;28;20066;-62
2021/04/04 11:53:48;;;;;;;24.48;5.03;;;8.40;99.90;;;;;;5015296;28;20056;-62
2021/04/04 11:56:42;;;;;;;22.10;4.85;;;8.30;99.90;;;;;;5006763;28;20030;-62
2021/04/04 11:59:08;;;;;;;23.63;4.55;;;8.30;99.90;;;;;;5005603;28;20052;-62
2021/04/04 12:01:34;;;;;;;16.00;4.47;;;8.20;99.90;;;;;;5012821;28;20046;-62
2021/04/04 12:04:43;;;;;;;26.90;4.50;;;8.10;99.90;;;;;;5008799;28;20429;-62
2021/04/04 12:07:10;;;;;;;29.77;6.32;;;8.00;99.90;;;;;;4991529;28;20401;-62
2021/04/04 12:09:38;;;;;;;29.70;5.60;;;8.00;99.90;;;;;;5011032;28;20057;-62
2021/04/04 12:12:05;;;;;;;32.15;7.15;;;7.90;99.90;;;;;;5013432;28;20346;-62
2021/04/04 12:14:31;;;;;;;24.90;5.82;;;7.90;99.90;;;;;;5011973;28;20724;-62
2021/04/04 12:16:58;;;;;;;24.70;5.22;;;7.80;99.90;;;;;;5009852;28;20029;-63
2021/04/04 12:19:30;;;;;;;20.13;5.88;;;7.90;99.90;;;;;;5009314;28;20049;-62
2021/04/04 12:21:58;;;;;;;22.80;4.95;;;7.90;99.90;;;;;;5011719;28;20543;-62
2021/04/04 12:24:47;;;;;;;24.90;5.55;;;7.90;99.90;;;;;;5004554;28;20026;-62
2021/04/04 12:27:15;;;;;;;21.05;4.47;;;7.90;99.90;;;;;;5011661;28;20127;-62
2021/04/04 12:29:43;;;;;;;17.40;4.88;;;7.80;99.90;;;;;;5009451;28;20106;-62
2021/04/04 12:32:18;;;;;;;23.23;5.93;;;7.70;99.90;;;;;;5012958;28;20583;-62
2021/04/04 12:34:44;;;;;;;20.42;4.60;;;7.70;99.90;;;;;;5004396;28;20099;-62
2021/04/04 12:37:12;;;;;;;15.65;3.65;;;7.70;99.90;;;;;;5014464;28;20026;-62
2021/04/04 12:39:39;;;;;;;11.25;4.90;;;7.70;99.90;;;;;;5009773;28;20467;-62
2021/04/04 12:42:10;;;;;;;16.33;4.47;;;7.60;99.90;;;;;;5005518;28;20045;-62
2021/04/04 12:44:38;;;;;;;13.07;4.78;;;7.60;99.90;;;;;;5008714;28;20218;-62
2021/04/04 12:47:12;;;;;;;17.23;5.47;;;7.70;99.90;;;;;;5005227;28;20037;-62
2021/04/04 12:49:43;;;;;;;15.00;4.25;;;7.80;99.90;;;;;;5005688;28;20422;-62
2021/04/04 12:52:10;;;;;;;14.55;4.38;;;7.90;99.90;;;;;;5014432;28;20041;-62
2021/04/04 12:54:37;;;;;;;21.35;5.32;;;7.90;99.90;;;;;;5014426;28;20462;-62
2021/04/04 12:57:04;;;;;;;22.40;6.97;;;8.00;99.90;;;;;;5011197;28;20088;-62
2021/04/04 12:59:29;;;;;;;23.35;6.82;;;8.00;99.90;;;;;;5014212;28;20491;-62
2021/04/04 13:01:55;;;;;;;14.57;6.00;;;7.90;99.90;;;;;;5011593;28;20073;-63
2021/04/04 13:04:25;;;;;;;19.48;7.65;;;7.90;99.90;;;;;;5013887;28;20493;-62
2021/04/04 13:06:57;;;;;;;23.92;7.18;;;8.00;99.90;;;;;;5005301;28;20037;-62
2021/04/04 13:09:23;;;;;;;21.35;7.43;;;8.00;99.90;;;;;;5006627;28;20037;-63
2021/04/04 13:11:49;;;;;;;18.92;8.00;;;7.90;99.90;;;;;;5008079;28;20036;-62
2021/04/04 13:14:25;;;;;;;30.38;8.27;;;7.80;99.90;;;;;;5010905;28;20026;-62
2021/04/04 13:16:57;;;;;;;19.95;7.13;;;7.70;99.90;;;;;;5013556;28;20037;-62
2021/04/04 13:19:23;;;;;;;25.17;7.53;;;7.80;99.90;;;;;;5009807;28;20347;-62